Time;durP1;ratioP1;P1;durP2;ratioP2;P2;SDS_P1;SDS_P2;PMS_P1;PMS_P2;Temp;Humidity;BMP_temperature;BMP_pressure;BME280_temperature;BME280_humidity;BME280_pressure;Samples;Min_cycle;Max_cycle;Signal;HPM_P1;HPM_P2
2022/01/25 00:33:27;;;;;;;;;64.00;45.25;;;;;3.96;57.00;102780.13;5062135;28;45340;-57
2022/01/25 00:35:52;;;;;;;;;53.25;40.50;;;;;3.95;57.41;102775.72;5061980;28;45193;-58
2022/01/25 00:38:18;;;;;;;;;58.00;47.25;;;;;3.93;57.50;102781.69;5060867;28;45355;-58
2022/01/25 00:40:43;;;;;;;;;55.75;44.50;;;;;3.89;57.46;102783.25;5061453;28;45562;-58
2022/01/25 00:43:09;;;;;;;;;59.25;47.25;;;;;3.88;57.21;102784.06;5061822;28;45189;-57
2022/01/25 00:45:34;;;;;;;;;49.25;40.50;;;;;3.83;57.23;102783.84;5059980;28;45434;-58
2022/01/25 00:48:02;;;;;;;;;58.25;43.00;;;;;3.81;57.20;102787.19;5062294;28;45396;-57
2022/01/25 00:50:31;;;;;;;;;61.25;44.50;;;;;3.78;57.41;102780.16;5062053;28;46501;-57
2022/01/25 00:55:22;;;;;;;;;58.50;46.25;;;;;3.70;57.44;102776.31;5061252;28;45293;-57
2022/01/25 00:57:48;;;;;;;;;59.00;45.25;;;;;3.67;57.79;102778.75;5061869;28;45371;-58
2022/01/25 01:00:13;;;;;;;;;62.75;49.00;;;;;3.64;57.35;102781.22;5061861;28;45340;-57
2022/01/25 01:02:39;;;;;;;;;60.00;45.25;;;;;3.59;57.42;102773.19;5061917;28;46010;-57
2022/01/25 01:05:05;;;;;;;;;57.00;44.75;;;;;3.58;57.57;102774.00;5061948;28;45442;-58
2022/01/25 01:07:30;;;;;;;;;57.00;41.25;;;;;3.56;57.59;102771.34;5061608;28;45493;-57
2022/01/25 01:09:58;;;;;;;;;56.50;42.50;;;;;3.54;57.51;102778.16;5061548;28;45460;-57
2022/01/25 01:12:53;;;;;;;;;59.50;45.50;;;;;3.52;57.68;102777.22;5061524;28;47144;-57
2022/01/25 01:15:24;;;;;;;;;49.75;42.25;;;;;3.53;57.44;102776.38;5061689;28;45213;-57
2022/01/25 01:31:22;;;;;;;;;59.25;45.75;;;;;3.41;57.63;102768.91;5061416;28;45265;-57
2022/01/25 01:34:47;;;;;;;;;50.75;42.00;;;;;3.41;57.72;102773.22;5060083;28;46076;-57
2022/01/25 01:47:42;;;;;;;;;47.75;40.00;;;;;3.34;58.05;102784.13;5061134;28;45353;-57
2022/01/25 01:50:12;;;;;;;;;57.00;44.25;;;;;3.30;58.23;102784.81;5061238;28;45166;-57
2022/01/25 01:52:37;;;;;;;;;60.50;45.75;;;;;3.27;57.96;102782.06;5061155;28;45322;-57
2022/01/25 01:55:05;;;;;;;;;47.75;37.25;;;;;3.28;58.10;102794.22;5060905;28;45311;-57
2022/01/25 01:57:31;;;;;;;;;56.50;44.50;;;;;3.27;57.89;102788.16;5060716;28;45206;-57
2022/01/25 01:59:56;;;;;;;;;47.00;40.00;;;;;3.25;57.89;102790.66;5059846;28;45232;-58
2022/01/25 02:02:22;;;;;;;;;54.25;42.00;;;;;3.21;57.88;102780.94;5060935;28;45417;-57
2022/01/25 02:04:47;;;;;;;;;55.50;43.25;;;;;3.22;58.19;102787.94;5060894;28;45331;-58
2022/01/25 02:07:13;;;;;;;;;57.50;42.25;;;;;3.23;58.11;102792.31;5059616;28;45173;-57
2022/01/25 02:09:38;;;;;;;;;57.25;43.50;;;;;3.22;58.43;102790.53;5060712;28;45227;-57
2022/01/25 02:12:05;;;;;;;;;54.25;42.75;;;;;3.25;57.97;102794.97;5060439;28;45148;-57
2022/01/25 02:14:33;;;;;;;;;59.00;45.25;;;;;3.22;58.30;102792.22;5060743;28;46234;-57
2022/01/25 02:17:24;;;;;;;;;56.25;45.50;;;;;3.23;58.50;102792.31;5059238;28;45363;-57
2022/01/25 02:22:55;;;;;;;;;61.75;44.00;;;;;3.21;58.46;102788.72;5060747;28;45408;-58
2022/01/25 02:25:21;;;;;;;;;57.50;44.25;;;;;3.21;58.41;102790.47;5060150;28;45911;-57
2022/01/25 02:27:46;;;;;;;;;54.50;41.75;;;;;3.21;58.41;102795.66;5060537;28;45294;-57
2022/01/25 02:30:12;;;;;;;;;51.75;39.00;;;;;3.18;58.70;102795.47;5060491;28;45363;-58
2022/01/25 02:32:38;;;;;;;;;47.75;37.25;;;;;3.15;58.94;102798.81;5060683;28;45284;-57
2022/01/25 02:35:04;;;;;;;;;51.00;41.50;;;;;3.17;58.64;102792.00;5060279;28;47032;-57
2022/01/25 02:37:30;;;;;;;;;58.50;43.25;;;;;3.18;58.32;102788.59;5076206;28;45426;-57
2022/01/25 02:39:55;;;;;;;;;43.00;35.00;;;;;3.18;58.99;102791.19;5060250;28;45395;-57
2022/01/25 02:42:21;;;;;;;;;51.75;40.50;;;;;3.16;58.54;102794.53;5060264;28;45251;-57
2022/01/25 02:44:47;;;;;;;;;53.25;41.00;;;;;3.15;58.31;102798.81;5060133;28;46016;-57
2022/01/25 02:49:57;;;;;;;;;56.00;40.25;;;;;3.17;58.63;102785.91;5060174;28;45449;-57
2022/01/25 02:52:23;;;;;;;;;55.50;39.50;;;;;3.18;58.93;102792.88;5060264;28;45560;-57
2022/01/25 02:54:48;;;;;;;;;49.25;41.25;;;;;3.13;58.65;102790.06;5058509;28;47354;-57
2022/01/25 02:57:14;;;;;;;;;46.25;38.75;;;;;3.12;59.18;102796.09;5059854;28;45434;-57
2022/01/25 02:59:40;;;;;;;;;45.00;39.75;;;;;3.10;58.42;102792.50;5058732;28;45439;-57
2022/01/25 03:02:06;;;;;;;;;56.25;40.50;;;;;3.13;58.51;102784.84;5060212;28;45449;-57
2022/01/25 03:04:31;;;;;;;;;45.75;37.50;;;;;3.15;59.02;102787.56;5058704;28;46287;-57
2022/01/25 03:06:57;;;;;;;;;35.00;30.25;;;;;3.15;59.10;102788.44;5059864;28;45253;-57
2022/01/25 03:09:22;;;;;;;;;45.75;35.75;;;;;3.18;58.81;102798.06;5058359;28;45319;-57
2022/01/25 03:11:51;;;;;;;;;36.75;33.25;;;;;3.18;58.54;102787.69;5059981;28;45363;-57
2022/01/25 03:14:19;;;;;;;;;42.75;35.00;;;;;3.18;59.12;102787.69;5058403;28;47278;-57
2022/01/25 03:16:52;;;;;;;;;43.50;38.00;;;;;3.16;58.72;102790.22;5059970;28;45501;-57
2022/01/25 03:22:43;;;;;;;;;45.25;39.25;;;;;3.10;59.13;102776.91;5059766;28;45608;-57
2022/01/25 03:25:02;;;;;;;;;47.00;40.25;;;;;3.09;58.82;102775.13;5054682;28;46112;-57
2022/01/25 03:27:27;;;;;;;;;35.00;29.75;;;;;3.11;59.14;102788.19;5058237;28;45776;-57
2022/01/25 03:29:52;;;;;;;;;48.50;38.00;;;;;3.12;58.74;102782.19;5059786;28;45367;-57
2022/01/25 03:32:18;;;;;;;;;49.75;37.75;;;;;3.12;58.80;102782.19;5059661;28;45415;-57
2022/01/25 03:34:43;;;;;;;;;43.00;37.50;;;;;3.09;59.19;102773.44;5058196;28;47015;-57
2022/01/25 03:37:08;;;;;;;;;44.75;39.25;;;;;3.02;59.30;102760.97;5059787;28;45410;-57
2022/01/25 03:39:34;;;;;;;;;43.25;37.50;;;;;3.13;59.10;102774.47;5059538;28;45344;-57
2022/01/25 03:42:00;;;;;;;;;39.50;34.25;;;;;3.13;58.66;102768.38;5059725;28;45373;-57
2022/01/25 03:44:25;;;;;;;;;45.25;35.25;;;;;3.15;59.22;102772.84;5059372;28;46388;-58
2022/01/25 03:52:02;;;;;;;;;51.75;37.75;;;;;3.11;58.98;102770.00;5059620;28;45316;-57
2022/01/25 03:54:27;;;;;;;;;54.50;41.25;;;;;3.11;59.29;102767.41;5059206;28;46152;-57
2022/01/25 03:56:53;;;;;;;;;53.75;38.00;;;;;3.12;59.19;102772.72;5059357;28;45354;-57
2022/01/25 03:59:18;;;;;;;;;56.75;41.00;;;;;3.14;59.21;102764.97;5059226;28;45275;-57
2022/01/25 04:01:44;;;;;;;;;50.25;39.75;;;;;3.16;58.77;102764.22;5059594;28;45201;-57
2022/01/25 04:04:13;;;;;;;;;47.50;37.25;;;;;3.17;59.19;102765.09;5059251;28;45240;-58
2022/01/25 04:06:43;;;;;;;;;44.75;34.00;;;;;3.17;59.29;102754.72;5059218;28;45316;-57
2022/01/25 04:09:09;;;;;;;;;51.25;41.50;;;;;3.20;58.83;102757.47;5057879;28;45283;-57
2022/01/25 04:11:36;;;;;;;;;49.00;39.00;;;;;3.19;58.85;102759.16;5059075;28;45210;-57
2022/01/25 04:14:02;;;;;;;;;54.75;40.50;;;;;3.21;58.76;102761.88;5057731;28;48191;-57
2022/01/25 04:16:38;;;;;;;;;48.00;37.50;;;;;3.22;59.29;102761.03;5059187;28;45359;-58
2022/01/25 04:19:24;;;;;;;;;49.00;40.75;;;;;3.21;59.38;102759.28;5059148;28;45437;-57
2022/01/25 04:27:05;;;;;;;;;49.50;40.25;;;;;3.12;59.02;102756.22;5058786;28;45331;-57
2022/01/25 04:29:30;;;;;;;;;51.50;43.25;;;;;3.22;59.17;102774.94;5057829;28;45354;-58
2022/01/25 04:31:57;;;;;;;;;47.75;40.50;;;;;3.21;59.07;102767.94;5061432;28;45252;-57
2022/01/25 04:53:13;;;;;;;;;45.25;39.75;;;;;3.31;59.65;102781.38;5062106;28;45401;-60
2022/01/25 04:55:56;;;;;;;;;52.25;39.25;;;;;3.27;59.57;102772.56;5060604;28;46430;-57
2022/01/25 04:58:30;;;;;;;;;50.25;32.25;;;;;3.30;59.33;102777.03;5061920;28;45203;-57
2022/01/25 05:00:55;;;;;;;;;47.25;38.00;;;;;3.28;59.67;102782.13;5062024;28;45215;-57
2022/01/25 05:03:29;;;;;;;;;56.50;44.50;;;;;3.28;59.75;102783.84;5062011;28;45158;-57
2022/01/25 05:06:00;;;;;;;;;41.50;37.25;;;;;3.28;59.21;102786.44;5060254;28;47005;-57
2022/01/25 05:08:42;;;;;;;;;53.25;40.25;;;;;3.27;59.70;102776.84;5061765;28;45349;-57
2022/01/25 05:11:44;;;;;;;;;50.00;39.75;;;;;3.28;59.22;102782.13;5048697;28;45316;-58
2022/01/25 05:14:14;;;;;;;;;58.25;45.75;;;;;3.25;59.29;102769.88;5059369;28;45352;-57
2022/01/25 05:22:17;;;;;;;;;59.50;44.00;;;;;3.33;59.22;102787.53;5061727;28;45329;-57
2022/01/25 05:24:44;;;;;;;;;52.00;41.50;;;;;3.31;59.21;102779.69;5061437;28;45465;-57
2022/01/25 05:27:12;;;;;;;;;52.75;42.50;;;;;3.34;59.46;102782.41;5061149;28;45196;-58
2022/01/25 05:29:37;;;;;;;;;44.50;34.75;;;;;3.37;59.43;102769.59;5060171;28;45404;-57
2022/01/25 05:32:04;;;;;;;;;60.00;42.00;;;;;3.37;58.92;102766.06;5060195;28;45355;-58
2022/01/25 05:34:29;;;;;;;;;51.00;42.00;;;;;3.42;59.17;102774.97;5061472;28;45320;-58
2022/01/25 05:36:55;;;;;;;;;58.00;45.25;;;;;3.41;59.50;102776.69;5061243;28;46369;-57
2022/01/25 05:39:28;;;;;;;;;62.75;44.00;;;;;3.42;59.06;102783.69;5059803;28;45606;-57
2022/01/25 05:41:57;;;;;;;;;57.25;44.00;;;;;3.44;59.42;102781.16;5059710;28;45360;-58
2022/01/25 05:49:24;;;;;;;;;58.75;43.75;;;;;3.51;59.22;102783.25;5061031;28;45188;-57
2022/01/25 05:51:50;;;;;;;;;52.00;42.75;;;;;3.51;59.36;102793.63;5061482;28;45223;-57
2022/01/25 05:54:15;;;;;;;;;55.25;44.00;;;;;3.55;59.44;102795.56;5060958;28;45414;-58
2022/01/25 05:56:41;;;;;;;;;57.50;45.50;;;;;3.57;59.16;102800.81;5060991;28;46191;-57
2022/01/25 05:59:06;;;;;;;;;53.75;40.75;;;;;3.57;59.11;102799.13;5061079;28;45306;-58
2022/01/25 06:01:32;;;;;;;;;48.00;40.00;;;;;3.58;59.44;102793.13;5061218;28;45469;-57
2022/01/25 06:03:58;;;;;;;;;55.75;42.75;;;;;3.58;59.26;102793.13;5060625;28;45505;-53
2022/01/25 06:06:24;;;;;;;;;55.75;44.50;;;;;3.60;59.74;102787.06;5060741;28;45330;-54
2022/01/25 06:08:49;;;;;;;;;57.75;44.75;;;;;3.57;59.46;102777.41;5060521;28;45374;-54
2022/01/25 06:11:14;;;;;;;;;55.50;44.25;;;;;3.58;59.55;102777.53;5060790;28;45399;-56
2022/01/25 06:13:40;;;;;;;;;62.75;45.00;;;;;3.62;59.65;102780.25;5060697;28;45434;-55
2022/01/25 06:16:05;;;;;;;;;58.75;44.25;;;;;3.63;59.48;102787.25;5060461;28;45488;-58
2022/01/25 06:18:31;;;;;;;;;48.25;41.50;;;;;3.62;59.60;102777.66;5060775;28;45225;-58
2022/01/25 06:20:56;;;;;;;;;56.00;42.00;;;;;3.61;59.71;102779.38;5060974;28;45591;-58
2022/01/25 06:23:21;;;;;;;;;51.75;41.25;;;;;3.63;59.92;102782.03;5060568;28;45457;-60
2022/01/25 06:25:47;;;;;;;;;54.00;41.00;;;;;3.62;59.71;102782.84;5060427;28;46265;-59
2022/01/25 06:28:13;;;;;;;;;63.50;49.25;;;;;3.62;59.31;102780.25;5059060;28;45264;-59
2022/01/25 06:30:39;;;;;;;;;43.75;36.50;;;;;3.64;59.51;102778.63;5059381;28;45198;-58
2022/01/25 06:33:07;;;;;;;;;51.50;40.75;;;;;3.65;59.89;102782.97;5060442;28;45544;-59
2022/01/25 06:35:34;;;;;;;;;60.25;46.25;;;;;3.63;59.41;102787.25;5060410;28;46473;-58
2022/01/25 06:37:59;;;;;;;;;54.25;40.00;;;;;3.66;59.82;102798.69;5060137;28;45387;-58
2022/01/25 06:40:25;;;;;;;;;60.00;44.50;;;;;3.67;59.37;102795.25;5059121;28;45329;-58
2022/01/25 06:42:51;;;;;;;;;54.75;43.50;;;;;3.66;59.59;102793.47;5060128;28;45412;-61
2022/01/25 06:45:19;;;;;;;;;58.75;45.25;;;;;3.72;59.45;102787.66;5060265;28;45252;-58
2022/01/25 06:47:47;;;;;;;;;57.25;46.50;;;;;3.73;59.92;102794.66;5060027;28;45318;-62
2022/01/25 06:50:15;;;;;;;;;51.00;36.00;;;;;3.76;59.72;102784.41;5060265;28;45375;-68
2022/01/25 06:52:42;;;;;;;;;53.25;42.75;;;;;3.80;59.73;102788.91;5059910;28;45229;-60
2022/01/25 06:55:10;;;;;;;;;56.25;44.50;;;;;3.78;59.43;102780.16;5059443;28;45405;-64
2022/01/25 06:57:37;;;;;;;;;56.25;44.00;;;;;3.80;59.75;102781.13;5058239;28;45487;-51
2022/01/25 07:00:11;;;;;;;;;62.75;48.00;;;;;3.82;59.50;102788.97;5059916;28;45301;-57
2022/01/25 07:02:36;;;;;;;;;56.50;44.25;;;;;3.81;59.90;102787.19;5059865;28;45534;-57
2022/01/25 07:05:03;;;;;;;;;54.25;43.50;;;;;3.80;59.51;102791.53;5058620;28;47138;-56
2022/01/25 07:07:29;;;;;;;;;71.00;51.25;;;;;3.78;59.45;102787.06;5059448;28;45438;-56
2022/01/25 07:09:55;;;;;;;;;61.50;45.25;;;;;3.81;59.83;102784.59;5059845;28;45307;-57
2022/01/25 07:12:21;;;;;;;;;57.00;41.75;;;;;3.80;59.70;102788.91;5059762;28;45412;-54
2022/01/25 07:14:47;;;;;;;;;56.75;43.75;;;;;3.81;59.30;102792.41;5059769;28;45287;-58
2022/01/25 07:17:13;;;;;;;;;61.75;45.50;;;;;3.82;59.34;102794.19;5058369;28;45217;-56
2022/01/25 07:19:38;;;;;;;;;53.75;40.00;;;;;3.81;59.64;102800.19;5059689;28;45557;-55
2022/01/25 07:22:04;;;;;;;;;55.00;44.75;;;;;3.79;59.75;102800.13;5059730;28;45413;-56
2022/01/25 07:24:29;;;;;;;;;53.75;44.00;;;;;3.72;59.56;102788.56;5059645;28;46001;-58
2022/01/25 07:26:54;;;;;;;;;64.25;46.00;;;;;3.76;59.61;102805.22;5059366;28;45250;-53
2022/01/25 07:29:20;;;;;;;;;58.50;44.25;;;;;3.74;59.55;102802.50;5059614;28;45347;-54
2022/01/25 07:31:45;;;;;;;;;56.25;46.75;;;;;3.73;59.90;102813.72;5059711;28;45582;-54
2022/01/25 07:34:11;;;;;;;;;61.75;45.25;;;;;3.74;59.64;102810.31;5059657;28;45397;-53
2022/01/25 07:36:38;;;;;;;;;52.00;44.50;;;;;3.77;60.11;102811.28;5059461;28;45332;-54
2022/01/25 07:39:04;;;;;;;;;60.00;48.25;;;;;3.78;59.43;102818.28;5058308;28;45399;-54
2022/01/25 07:41:30;;;;;;;;;61.75;49.00;;;;;3.79;60.04;102820.06;5059246;28;45485;-51
2022/01/25 07:43:56;;;;;;;;;60.50;48.50;;;;;3.79;59.84;102814.88;5059581;28;46155;-53
2022/01/25 07:46:21;;;;;;;;;61.00;46.75;;;;;3.77;59.77;102811.28;5059388;28;45312;-52
2022/01/25 07:48:47;;;;;;;;;64.25;45.00;;;;;3.75;59.74;102813.81;5059708;28;45321;-53
2022/01/25 07:51:12;;;;;;;;;56.75;43.25;;;;;3.75;60.06;102819.03;5058314;28;45627;-53
2022/01/25 07:53:38;;;;;;;;;66.25;49.25;;;;;3.73;60.12;102810.25;5059525;28;46575;-53
2022/01/25 07:56:04;;;;;;;;;62.50;48.50;;;;;3.74;60.00;102817.25;5059033;28;45446;-54
2022/01/25 07:58:29;;;;;;;;;57.00;47.50;;;;;3.64;59.95;102808.09;5058109;28;45311;-54
2022/01/25 08:00:55;;;;;;;;;61.25;45.25;;;;;3.68;59.80;102824.75;5059281;28;45339;-55
2022/01/25 08:03:22;;;;;;;;;58.25;43.75;;;;;3.73;60.26;102836.25;5059213;28;45966;-53
2022/01/25 08:05:50;;;;;;;;;56.75;45.00;;;;;3.73;59.78;102838.84;5059947;28;45481;-54
2022/01/25 08:08:15;;;;;;;;;65.25;48.00;;;;;3.74;59.69;102830.25;5062870;28;45224;-55
2022/01/25 08:10:41;;;;;;;;;53.00;43.25;;;;;3.72;59.60;102824.06;5062721;28;45543;-55
2022/01/25 08:13:06;;;;;;;;;66.00;47.75;;;;;3.73;59.87;102837.13;5062324;28;46864;-54
2022/01/25 08:15:32;;;;;;;;;51.25;39.00;;;;;3.77;59.77;102842.50;5062546;28;45160;-53
2022/01/25 08:18:03;;;;;;;;;56.75;43.25;;;;;3.79;59.92;102851.28;5061447;28;45469;-53
2022/01/25 08:20:28;;;;;;;;;52.50;42.25;;;;;3.74;60.08;102840.66;5061279;28;45540;-54
2022/01/25 08:22:53;;;;;;;;;53.75;43.25;;;;;3.75;59.75;102839.84;5062434;28;46178;-55
2022/01/25 08:25:19;;;;;;;;;50.50;41.25;;;;;3.78;59.93;102844.28;5062283;28;45327;-52
2022/01/25 08:27:46;;;;;;;;;52.75;41.50;;;;;3.78;60.14;102845.16;5062545;28;46508;-52
2022/01/25 08:30:12;;;;;;;;;50.50;41.00;;;;;3.76;60.13;102831.22;5062268;28;45228;-54
2022/01/25 08:32:38;;;;;;;;;56.75;41.00;;;;;3.75;60.28;102845.03;5062350;28;46327;-53
2022/01/25 08:35:03;;;;;;;;;58.00;44.00;;;;;3.72;59.78;102845.78;5062404;28;45323;-53
2022/01/25 08:37:29;;;;;;;;;58.75;44.25;;;;;3.72;59.72;102840.59;5062332;28;45411;-51
2022/01/25 08:39:54;;;;;;;;;59.75;43.75;;;;;3.71;59.91;102844.00;5061007;28;45357;-54
2022/01/25 08:42:20;;;;;;;;;60.00;44.00;;;;;3.71;60.06;102837.88;5062000;28;45232;-54
2022/01/25 08:44:46;;;;;;;;;57.50;41.75;;;;;3.72;59.95;102837.06;5062230;28;45292;-53
2022/01/25 08:47:11;;;;;;;;;58.00;43.00;;;;;3.72;60.10;102855.28;5062484;28;45241;-54
2022/01/25 08:49:38;;;;;;;;;53.25;40.75;;;;;3.71;60.06;102845.69;5061936;28;46501;-54
2022/01/25 08:52:04;;;;;;;;;50.25;40.25;;;;;3.68;60.08;102843.81;5062095;28;46240;-54
2022/01/25 08:54:30;;;;;;;;;54.75;43.75;;;;;3.68;59.93;102845.56;5061833;28;45254;-54
2022/01/25 08:56:56;;;;;;;;;61.25;48.25;;;;;3.66;60.13;102845.50;5062007;28;45246;-53
2022/01/25 08:59:22;;;;;;;;;48.00;41.00;;;;;3.69;60.23;102843.03;5061703;28;45519;-54
2022/01/25 09:01:48;;;;;;;;;52.00;41.25;;;;;3.67;60.22;102843.75;5061885;28;46672;-53
2022/01/25 09:04:13;;;;;;;;;62.50;47.00;;;;;3.68;60.36;102838.63;5061775;28;45261;-55
2022/01/25 09:06:39;;;;;;;;;55.00;44.00;;;;;3.70;59.97;102842.22;5061955;28;45265;-51
2022/01/25 09:09:07;;;;;;;;;58.75;43.75;;;;;3.72;60.38;102843.19;5061528;28;45348;-53
2022/01/25 09:11:35;;;;;;;;;51.50;41.50;;;;;3.73;60.35;102850.13;5061520;28;46765;-55
2022/01/25 09:14:00;;;;;;;;;50.75;42.25;;;;;3.71;59.85;102846.59;5061705;28;45244;-52
2022/01/25 09:16:26;;;;;;;;;53.75;40.75;;;;;3.74;60.20;102851.06;5061336;28;45224;-54
2022/01/25 09:18:51;;;;;;;;;62.25;48.00;;;;;3.74;60.02;102859.72;5061539;28;45284;-52
2022/01/25 09:21:17;;;;;;;;;49.25;40.25;;;;;3.71;60.29;102856.09;5061536;28;46140;-52
2022/01/25 09:23:42;;;;;;;;;57.00;43.50;;;;;3.76;60.19;102861.53;5061432;28;45156;-54
2022/01/25 09:26:08;;;;;;;;;59.00;46.50;;;;;3.78;60.02;102854.69;5061444;28;45462;-54
2022/01/25 09:28:33;;;;;;;;;52.00;40.50;;;;;3.78;60.35;102857.28;5060172;28;45458;-55
2022/01/25 09:30:59;;;;;;;;;58.50;44.00;;;;;3.79;60.18;102859.09;5061340;28;46121;-52
2022/01/25 09:33:25;;;;;;;;;58.50;43.00;;;;;3.79;60.14;102864.28;5061389;28;45432;-53
2022/01/25 09:35:52;;;;;;;;;59.50;45.25;;;;;3.80;60.53;102863.44;5061596;28;45346;-53
2022/01/25 09:38:18;;;;;;;;;61.75;45.75;;;;;3.81;59.98;102862.63;5061245;28;45320;-54
2022/01/25 09:40:44;;;;;;;;;62.50;45.50;;;;;3.81;60.12;102860.94;5060971;28;45442;-54
2022/01/25 09:43:10;;;;;;;;;59.25;44.00;;;;;3.82;60.16;102859.22;5061279;28;45350;-54
2022/01/25 09:45:36;;;;;;;;;65.00;46.75;;;;;3.84;60.18;102871.47;5061345;28;45485;-54
2022/01/25 09:48:04;;;;;;;;;56.25;41.50;;;;;3.85;60.03;102867.16;5061206;28;45247;-54
2022/01/25 09:50:30;;;;;;;;;54.75;45.50;;;;;3.87;60.18;102868.13;5061210;28;46143;-54
2022/01/25 09:52:56;;;;;;;;;57.75;44.75;;;;;3.86;60.49;102866.34;5076703;28;45382;-53
2022/01/25 09:55:26;;;;;;;;;60.00;45.75;;;;;3.87;60.52;102874.25;5061169;28;45398;-54
2022/01/25 09:57:52;;;;;;;;;64.50;49.00;;;;;3.89;60.46;102874.31;5060565;28;45239;-52
2022/01/25 10:00:20;;;;;;;;;58.25;47.25;;;;;3.93;60.63;102870.13;5061005;28;46061;-54
2022/01/25 10:03:10;;;;;;;;;58.75;44.75;;;;;3.95;60.34;102863.28;5060886;28;45362;-54
2022/01/25 10:05:43;;;;;;;;;54.25;36.50;;;;;4.00;60.39;102864.38;5059827;28;45276;-52
2022/01/25 10:08:11;;;;;;;;;59.50;47.50;;;;;4.01;60.64;102868.78;5061171;28;45427;-53
2022/01/25 10:10:42;;;;;;;;;57.75;44.25;;;;;4.02;60.73;102870.56;5060543;28;46112;-54
2022/01/25 10:13:19;;;;;;;;;61.50;43.25;;;;;4.04;60.58;102868.94;5060768;28;45369;-51
2022/01/25 10:15:45;;;;;;;;;60.00;46.50;;;;;4.05;60.31;102869.00;5060837;28;45433;-52
2022/01/25 10:18:11;;;;;;;;;56.50;42.00;;;;;4.07;60.47;102880.38;5059442;28;45320;-54
2022/01/25 10:20:43;;;;;;;;;66.00;48.25;;;;;4.10;60.72;102878.72;5059217;28;46005;-53
2022/01/25 10:23:31;;;;;;;;;60.00;47.00;;;;;4.12;60.42;102884.91;5060715;28;45323;-53
2022/01/25 10:26:00;;;;;;;;;53.75;43.25;;;;;4.12;60.34;102879.69;5049135;28;45428;-54
2022/01/25 10:28:30;;;;;;;;;60.75;45.50;;;;;4.13;60.63;102889.28;5059556;28;45310;-53
2022/01/25 10:30:58;;;;;;;;;63.25;46.00;;;;;4.12;60.56;102888.38;5060744;28;45584;-53
2022/01/25 10:33:40;;;;;;;;;57.25;42.00;;;;;4.16;60.44;102889.41;5060461;28;45444;-53
2022/01/25 10:36:12;;;;;;;;;59.00;47.50;;;;;4.15;60.76;102888.53;5060679;28;45174;-53
2022/01/25 10:38:41;;;;;;;;;70.75;54.00;;;;;4.15;60.91;102878.13;5060340;28;45382;-53
2022/01/25 10:41:13;;;;;;;;;61.75;48.50;;;;;4.19;61.04;102881.78;5059921;28;46387;-52
2022/01/25 10:43:41;;;;;;;;;61.75;48.00;;;;;4.20;60.71;102879.22;5060510;28;45209;-54
2022/01/25 10:46:12;;;;;;;;;50.00;37.25;;;;;4.23;60.97;102878.47;5060372;28;45169;-53
2022/01/25 10:48:41;;;;;;;;;59.75;47.25;;;;;4.26;60.50;102880.34;5060463;28;45420;-54
2022/01/25 10:51:09;;;;;;;;;62.00;45.75;;;;;4.30;60.82;102892.66;5060144;28;45262;-53
2022/01/25 10:53:36;;;;;;;;;56.50;44.25;;;;;4.32;60.68;102889.31;5060495;28;45234;-50
2022/01/25 10:56:03;;;;;;;;;65.00;47.75;;;;;4.37;60.60;102885.19;5058588;28;45379;-48
2022/01/25 10:58:29;;;;;;;;;61.00;47.00;;;;;4.41;60.75;102881.03;5060232;28;45398;-52
2022/01/25 11:00:57;;;;;;;;;61.50;46.25;;;;;4.46;60.59;102884.72;5059991;28;45809;-52
2022/01/25 11:03:32;;;;;;;;;58.00;46.50;;;;;4.48;60.55;102890.03;5060128;28;45350;-54
2022/01/25 11:06:09;;;;;;;;;60.00;45.25;;;;;4.50;60.90;102881.47;5060007;28;45448;-56
2022/01/25 11:08:36;;;;;;;;;56.25;44.75;;;;;4.53;60.69;102876.38;5060147;28;45338;-53
2022/01/25 11:11:03;;;;;;;;;63.00;47.00;;;;;4.58;60.78;102874.00;5059595;28;46316;-54
2022/01/25 11:16:00;;;;;;;;;63.25;47.25;;;;;4.66;60.76;102874.31;5052279;28;45273;-57
2022/01/25 11:18:26;;;;;;;;;60.25;47.25;;;;;4.69;60.82;102866.63;5081419;27;45595;-54
2022/01/25 11:20:53;;;;;;;;;61.75;43.50;;;;;4.70;60.71;102871.94;5059205;28;46046;-57
2022/01/25 11:23:19;;;;;;;;;64.00;45.50;;;;;4.73;60.81;102876.38;5058173;28;45390;-54
2022/01/25 11:25:48;;;;;;;;;60.50;45.25;;;;;4.74;61.14;102877.25;5054901;28;45457;-56
2022/01/25 11:28:14;;;;;;;;;56.25;44.50;;;;;4.74;61.02;102879.88;5059863;28;45234;-54
2022/01/25 11:30:42;;;;;;;;;64.50;50.25;;;;;4.76;61.35;102879.13;5057862;28;47846;-55
2022/01/25 11:33:09;;;;;;;;;57.75;48.50;;;;;4.76;60.67;102880.84;5056937;28;45425;-55
2022/01/25 11:35:36;;;;;;;;;59.75;46.75;;;;;4.75;61.02;102869.50;5059565;28;45370;-55
2022/01/25 11:38:03;;;;;;;;;59.00;43.25;;;;;4.81;60.84;102882.81;5059598;28;45489;-57
2022/01/25 11:40:33;;;;;;;;;59.50;45.50;;;;;4.84;61.01;102884.66;5061221;28;45536;-56
2022/01/25 11:43:05;;;;;;;;;56.00;43.00;;;;;4.85;60.87;102876.91;5062694;28;45323;-55
2022/01/25 11:45:34;;;;;;;;;61.25;46.50;;;;;4.84;61.18;102877.75;5063607;28;45544;-55
2022/01/25 11:48:00;;;;;;;;;57.25;45.50;;;;;4.85;60.97;102874.28;5062140;28;45453;-53
2022/01/25 11:50:28;;;;;;;;;63.75;46.50;;;;;4.86;60.73;102868.25;5061675;28;46022;-55
2022/01/25 11:53:05;;;;;;;;;63.75;47.00;;;;;4.87;60.89;102872.66;5062638;28;45463;-54
2022/01/25 11:55:33;;;;;;;;;61.75;46.00;;;;;4.88;60.97;102877.03;5062931;28;45342;-54
2022/01/25 11:58:08;;;;;;;;;60.00;44.50;;;;;4.90;60.67;102866.69;5060878;28;45502;-55
2022/01/25 12:00:38;;;;;;;;;62.25;49.25;;;;;4.89;60.94;102870.09;5062831;28;46210;-51
2022/01/25 12:03:27;;;;;;;;;54.50;41.75;;;;;4.87;60.90;102863.97;5062915;28;45240;-53
2022/01/25 12:06:06;;;;;;;;;60.50;46.00;;;;;4.85;60.64;102858.66;5062708;28;45401;-53
2022/01/25 12:11:25;;;;;;;;;61.75;44.00;;;;;4.86;60.97;102856.97;5062353;28;46055;-54
2022/01/25 12:14:36;;;;;;;;;44.75;38.50;;;;;4.85;61.01;102855.19;5062506;28;45314;-54
2022/01/25 12:17:01;;;;;;;;;54.00;43.25;;;;;4.84;60.71;102862.13;5032618;28;45399;-54
2022/01/25 12:19:47;;;;;;;;;52.50;41.50;;;;;4.85;60.91;102863.00;5020391;28;45435;-54
2022/01/25 12:22:38;;;;;;;;;59.00;46.25;;;;;4.85;60.63;102858.66;5039570;28;46226;-54
2022/01/25 12:25:21;;;;;;;;;64.75;47.75;;;;;4.85;60.95;102855.19;5067757;28;45331;-55
2022/01/25 12:28:10;;;;;;;;;67.75;47.75;;;;;4.85;60.66;102849.97;5063742;28;45220;-54
2022/01/25 12:30:45;;;;;;;;;59.75;47.00;;;;;4.85;60.94;102843.03;5062492;28;45173;-55
2022/01/25 12:33:19;;;;;;;;;62.25;46.75;;;;;4.83;60.91;102842.09;5062347;28;46191;-54
2022/01/25 12:35:52;;;;;;;;;62.50;47.25;;;;;4.83;60.73;102841.19;5061212;28;45206;-52
2022/01/25 12:38:20;;;;;;;;;63.75;49.75;;;;;4.83;60.67;102839.50;5062216;28;45231;-54
2022/01/25 12:40:50;;;;;;;;;68.75;46.25;;;;;4.87;61.01;102840.50;5062014;28;45372;-55
2022/01/25 12:43:26;;;;;;;;;60.50;45.50;;;;;4.84;60.70;102830.84;5062175;28;46385;-53
2022/01/25 12:45:56;;;;;;;;;59.50;45.00;;;;;4.89;60.82;102833.63;5062376;28;45301;-54
2022/01/25 12:48:28;;;;;;;;;61.25;45.00;;;;;4.90;60.69;102834.53;5062109;28;45282;-53
2022/01/25 12:50:57;;;;;;;;;59.50;45.00;;;;;4.92;60.89;102838.09;5061751;28;45495;-54
2022/01/25 12:53:25;;;;;;;;;49.25;37.25;;;;;4.94;60.89;102828.63;5061930;28;45384;-53
2022/01/25 12:55:54;;;;;;;;;66.00;50.00;;;;;4.95;60.79;102828.69;5061693;28;45268;-55
2022/01/25 12:58:25;;;;;;;;;59.00;45.25;;;;;4.96;61.05;102822.66;5062322;28;45316;-54
2022/01/25 13:00:54;;;;;;;;;59.75;44.50;;;;;4.96;60.90;102825.25;5077555;28;45447;-53
2022/01/25 13:03:20;;;;;;;;;65.50;49.25;;;;;4.99;61.01;102822.81;5060529;28;46986;-52
2022/01/25 13:05:51;;;;;;;;;64.75;45.50;;;;;5.01;60.84;102817.66;5061632;28;45223;-54
2022/01/25 13:08:21;;;;;;;;;59.00;41.75;;;;;5.02;60.79;102817.69;5062116;28;45276;-53
2022/01/25 13:10:50;;;;;;;;;60.50;48.75;;;;;5.04;60.99;102812.53;5061357;28;45335;-51
2022/01/25 13:13:30;;;;;;;;;66.25;49.50;;;;;5.04;60.98;102812.53;5060455;28;45617;-54
2022/01/25 13:15:56;;;;;;;;;62.00;45.75;;;;;5.07;60.61;102811.78;5061532;28;45383;-54